Aérodrome :
LOGIN :

S'inscrire | Disclaimer

   EN    FR    IT 

 










Légende :    VFR   VFR Marginal   IFR   IFR Intensif   IFR Très Intensif
Visi : 
Plafond : 
>= 8 km
>= 3000ft
5 à 8 km
1000 à 3000 ft
1500m à 5 km
500 à 1000 ft
800 à 1500m
200 à 500 ft
< 800m
< 200 ft
Symboles :   Orages  Brouillard  Fortes neiges  Fortes précipitations  Vent > 20 kt
SIGMETs :   Divers  Orages  Givrage  Turbulence  Onde Orograph.  Cendres Volcan.






- Altitude de l'aérodrome : 255 ft


ENGC - Gullfaks C oil platform

DERNIER METAR :
  • 182320Z 02004KT 9999 SCT010 10/09 Q1028 W09/S2

METARs EXPIRÉS :
  • 182250Z 01004KT 9999 FEW010 10/09 Q1029 W09/S3
  • 182220Z 36005KT 9999 FEW010 11/09 Q1029 W09/S3
  • 182150Z 35005KT 9999 FEW010 11/09 Q1029 W09/S4
  • 182050Z 32006KT 9999 FEW010 10/09 Q1029 W09/S4

TAF TAF ENGC
Valide du 18 à 21h jusqu'au 19 à 21h UTC


1821/1921 31005KT 9999 FEW010
PROB30 1821/1906 BKN008
BECMG 1911/1914 20012KT
BECMG 1915/1918 BKN008
PROB40 1918/1921 0200 FG VV002



MET'MAP, la Météo Aéronautique d'un coup d'oeil ! - Copyright ORBIFLY Décembre 2007 - Disclaimer

ORBIFLY MET'MAP TEAM :

Programmation & Développement : Alexandra Zaïnal
Sur une idée originale de : Baudouin d'Aumeries
Assistance à la programmation : Marc-Olivier Méhu
Soutien technique & logistique : Manuel Goepfert

Contact : metmap@orbifly.com




SOURCES & CREDITS :

   NOAA